| Date | Time | Temp. (oF) | Dew Point (oF) | Rel. Hum. (%) | Press. (in.) | Wind Dir. | Wind Speed (mph) | Hourly Rainfall (in.) |
|
|---|---|---|---|---|---|---|---|---|---|
| 1 | 10/13 | 00:00 | 53 | 51 | 93 | 30.44 | WSW | 0 | 0.00 |
| 2 | 10/12 | 23:00 | 55 | 52 | 90 | 30.44 | WSW | 0 | 0.00 |
| 3 | 10/12 | 22:00 | 57 | 52 | 86 | 30.44 | WSW | 0 | 0.00 |
| 4 | 10/12 | 21:00 | 59 | 53 | 81 | 30.44 | WSW | 0 | 0.00 |
| 5 | 10/12 | 20:00 | 62 | 52 | 71 | 30.44 | WSW | 0 | 0.00 |
| 6 | 10/12 | 19:00 | 68 | 53 | 59 | 30.42 | WSW | 0 | 0.00 |
| 7 | 10/12 | 18:00 | 74 | 50 | 44 | 30.41 | WSW | 0 | 0.00 |
| 8 | 10/12 | 17:00 | 76 | 49 | 39 | 30.41 | WSW | 0 | 0.00 |
| 9 | 10/12 | 16:00 | 76 | 49 | 40 | 30.42 | ENE | 0 | 0.00 |
| 10 | 10/12 | 15:00 | 76 | 49 | 40 | 30.44 | ESE | 0 | 0.00 |
| 11 | 10/12 | 14:00 | 75 | 52 | 46 | 30.46 | SSE | 0 | 0.00 |
| 12 | 10/12 | 13:00 | 72 | 53 | 52 | 30.48 | NNW | 2 | 0.00 |
| 13 | 10/12 | 12:00 | 68 | 52 | 58 | 30.50 | NNE | 2 | 0.00 |
| 14 | 10/12 | 11:00 | 63 | 55 | 76 | 30.51 | S | 0 | 0.00 |
| 15 | 10/12 | 10:00 | 57 | 52 | 86 | 30.52 | S | 0 | 0.00 |
| 16 | 10/12 | 09:00 | 51 | 50 | 100 | 30.52 | SE | 0 | 0.00 |
| 17 | 10/12 | 08:00 | 44 | 44 | 100 | 30.50 | S | 0 | 0.00 |
| 18 | 10/12 | 07:00 | 44 | 44 | 100 | 30.48 | S | 0 | 0.00 |
| 19 | 10/12 | 06:00 | 44 | 43 | 99 | 30.46 | S | 0 | 0.00 |
| 20 | 10/12 | 05:00 | 45 | 44 | 99 | 30.45 | S | 0 | 0.00 |
| 21 | 10/12 | 04:00 | 46 | 45 | 98 | 30.45 | S | 0 | 0.00 |
| 22 | 10/12 | 03:00 | 47 | 46 | 98 | 30.44 | S | 1 | 0.00 |
| 23 | 10/12 | 02:00 | 47 | 45 | 96 | 30.43 | E | 0 | 0.00 |
| 24 | 10/12 | 01:00 | 48 | 46 | 94 | 30.43 | E | 0 | 0.00 |